Time;durP1;ratioP1;P1;durP2;ratioP2;P2;SDS_P1;SDS_P2;PMS_P1;PMS_P2;Temp;Humidity;BMP_temperature;BMP_pressure;BME280_temperature;BME280_humidity;BME280_pressure;Samples;Min_cycle;Max_cycle;Signal;HPM_P1;HPM_P2
2023/10/17 00:01:44;;;;;;;26.50;14.80;;;6.20;99.90;;;;;;5033331;28;20282;-71
2023/10/17 00:06:46;;;;;;;21.13;14.07;;;6.20;99.90;;;;;;5033913;28;20638;-71
2023/10/17 00:09:21;;;;;;;25.60;14.83;;;6.10;99.90;;;;;;5032902;28;20172;-71
2023/10/17 00:14:27;;;;;;;23.10;14.00;;;6.00;99.90;;;;;;5033281;28;20674;-71
2023/10/17 00:16:56;;;;;;;23.27;14.30;;;5.90;99.90;;;;;;5032034;28;20180;-71
2023/10/17 00:19:31;;;;;;;26.20;14.07;;;5.90;99.90;;;;;;5033293;28;20175;-71
2023/10/17 00:21:59;;;;;;;25.80;16.10;;;5.90;99.90;;;;;;5033398;28;20182;-71
2023/10/17 00:24:25;;;;;;;21.83;15.43;;;5.90;99.90;;;;;;5033184;28;20199;-71
2023/10/17 00:26:50;;;;;;;28.90;14.63;;;5.90;99.90;;;;;;5032793;28;20604;-71
2023/10/17 00:29:16;;;;;;;20.20;14.87;;;5.80;99.90;;;;;;5032969;28;20258;-71
2023/10/17 00:31:44;;;;;;;21.37;15.03;;;5.80;99.90;;;;;;5033039;28;20198;-71
2023/10/17 00:34:13;;;;;;;21.13;15.43;;;5.70;99.90;;;;;;5032730;28;20168;-71
2023/10/17 00:37:00;;;;;;;28.07;15.03;;;5.70;99.90;;;;;;5032985;28;20268;-71
2023/10/17 00:39:29;;;;;;;20.97;14.77;;;5.60;99.90;;;;;;5032678;28;20199;-71
2023/10/17 00:44:38;;;;;;;20.17;14.03;;;5.50;99.90;;;;;;5032722;28;20277;-71
2023/10/17 00:47:08;;;;;;;20.67;13.30;;;5.50;99.90;;;;;;5032757;28;20175;-71
2023/10/17 00:49:44;;;;;;;20.30;14.17;;;5.40;99.90;;;;;;5032609;28;20593;-71
2023/10/17 00:52:22;;;;;;;19.83;13.50;;;5.30;99.90;;;;;;5032908;28;20254;-71
2023/10/17 00:54:50;;;;;;;20.77;13.17;;;5.20;99.90;;;;;;5032408;28;20175;-71
2023/10/17 00:57:19;;;;;;;22.00;13.60;;;5.20;99.90;;;;;;5032515;28;20538;-71
2023/10/17 00:59:53;;;;;;;23.50;14.23;;;5.10;99.90;;;;;;5032504;28;20195;-71
2023/10/17 01:02:22;;;;;;;20.77;14.00;;;5.10;99.90;;;;;;5032409;28;20163;-71
2023/10/17 01:04:49;;;;;;;24.20;15.13;;;5.10;99.90;;;;;;5012623;28;20169;-71
2023/10/17 01:07:25;;;;;;;28.70;15.87;;;5.10;99.90;;;;;;5012630;28;20168;-71
2023/10/17 01:09:55;;;;;;;21.90;14.87;;;5.20;99.90;;;;;;5013615;28;20196;-71
2023/10/17 01:12:28;;;;;;;23.70;15.17;;;5.20;99.90;;;;;;5029060;28;20671;-71
2023/10/17 01:14:54;;;;;;;24.73;15.90;;;5.20;99.90;;;;;;5032183;28;20164;-71
2023/10/17 01:17:26;;;;;;;24.73;15.37;;;5.30;99.90;;;;;;5031757;28;20226;-71
2023/10/17 01:20:02;;;;;;;24.47;15.40;;;5.30;99.90;;;;;;5032015;28;20195;-71
2023/10/17 01:22:32;;;;;;;21.93;14.17;;;5.30;99.90;;;;;;5032113;28;20650;-71
2023/10/17 01:24:57;;;;;;;22.97;14.73;;;5.40;99.90;;;;;;5030694;28;20175;-71
2023/10/17 01:27:23;;;;;;;20.93;15.50;;;5.40;99.90;;;;;;5030757;28;20279;-71
2023/10/17 01:29:49;;;;;;;23.43;14.27;;;5.40;99.90;;;;;;5031851;28;20192;-71
2023/10/17 01:32:15;;;;;;;22.57;13.83;;;5.50;99.90;;;;;;5031549;28;20179;-71
2023/10/17 01:34:41;;;;;;;25.77;19.60;;;5.50;99.90;;;;;;5031669;28;20179;-71
2023/10/17 01:37:10;;;;;;;20.27;14.00;;;5.60;99.90;;;;;;5031752;28;20245;-71
2023/10/17 01:39:37;;;;;;;18.73;14.10;;;5.60;99.90;;;;;;5031168;28;20675;-71
2023/10/17 01:42:04;;;;;;;23.73;14.07;;;5.70;99.90;;;;;;5031460;28;20172;-71
2023/10/17 01:44:29;;;;;;;25.20;13.60;;;5.70;99.90;;;;;;5031569;28;20200;-71
2023/10/17 01:46:55;;;;;;;17.60;13.80;;;5.80;99.90;;;;;;5031616;28;20190;-72
2023/10/17 01:49:21;;;;;;;19.77;12.33;;;5.80;99.90;;;;;;5029679;28;20179;-72
2023/10/17 01:51:49;;;;;;;17.23;12.97;;;5.90;99.90;;;;;;5031387;28;20175;-72
2023/10/17 01:54:17;;;;;;;20.80;13.20;;;5.90;99.90;;;;;;5031050;28;20475;-72
2023/10/17 01:56:49;;;;;;;19.50;12.13;;;6.00;99.90;;;;;;5030988;28;20184;-72
2023/10/17 01:59:25;;;;;;;17.33;12.73;;;6.00;99.90;;;;;;5031156;28;20183;-72
2023/10/17 02:01:56;;;;;;;19.03;13.07;;;6.00;99.90;;;;;;5029841;28;20286;-71
2023/10/17 02:04:22;;;;;;;14.47;10.87;;;6.10;99.90;;;;;;5029235;28;20294;-72
2023/10/17 02:06:48;;;;;;;21.03;12.30;;;6.10;99.90;;;;;;5030852;28;20254;-72
2023/10/17 02:12:00;;;;;;;16.33;11.93;;;6.10;99.90;;;;;;5031055;28;20521;-72
2023/10/17 02:14:26;;;;;;;13.27;11.53;;;6.10;99.90;;;;;;5030401;28;20673;-71
2023/10/17 02:16:52;;;;;;;13.33;10.80;;;6.00;99.90;;;;;;5031174;28;20183;-72
2023/10/17 02:19:27;;;;;;;13.97;11.00;;;6.00;99.90;;;;;;5030951;28;20179;-72
2023/10/17 02:21:54;;;;;;;19.43;11.33;;;6.00;99.90;;;;;;5031156;28;20233;-72
2023/10/17 02:24:20;;;;;;;14.00;10.73;;;5.90;99.90;;;;;;5030782;28;20203;-72
2023/10/17 02:26:55;;;;;;;18.03;11.17;;;5.90;99.90;;;;;;5031100;28;20643;-72
2023/10/17 02:29:25;;;;;;;13.80;10.73;;;5.80;99.90;;;;;;5031089;28;20244;-72
2023/10/17 02:31:52;;;;;;;17.73;12.07;;;5.80;99.90;;;;;;5031315;28;20585;-72
2023/10/17 02:34:22;;;;;;;20.30;11.90;;;5.80;99.90;;;;;;5030803;28;20171;-71
2023/10/17 02:36:49;;;;;;;15.40;11.23;;;5.70;99.90;;;;;;5030780;28;20256;-71
2023/10/17 02:39:15;;;;;;;15.80;11.50;;;5.70;99.90;;;;;;5030934;28;20237;-71
2023/10/17 02:41:45;;;;;;;14.80;10.67;;;5.60;99.90;;;;;;5031054;28;20179;-71
2023/10/17 02:44:12;;;;;;;15.57;11.97;;;5.60;99.90;;;;;;5031036;28;20788;-72
2023/10/17 02:46:38;;;;;;;12.97;10.80;;;5.60;99.90;;;;;;5029828;28;20643;-72
2023/10/17 02:49:07;;;;;;;15.93;12.07;;;5.60;99.90;;;;;;5030492;28;20257;-72
2023/10/17 02:51:33;;;;;;;12.87;11.33;;;5.70;99.90;;;;;;5030941;28;20178;-71
2023/10/17 02:54:05;;;;;;;17.37;11.60;;;5.70;99.90;;;;;;5030564;28;20183;-72
2023/10/17 02:56:36;;;;;;;17.67;12.50;;;5.70;99.90;;;;;;5031006;28;20258;-72
2023/10/17 02:59:10;;;;;;;16.73;11.20;;;5.80;99.90;;;;;;5031089;28;20180;-71
2023/10/17 03:01:37;;;;;;;14.97;12.20;;;5.80;99.90;;;;;;5030979;28;20653;-72
2023/10/17 03:04:12;;;;;;;16.97;11.70;;;5.80;99.90;;;;;;5030054;28;20210;-72
2023/10/17 03:06:39;;;;;;;14.40;10.93;;;5.70;99.90;;;;;;5030958;28;20171;-72
2023/10/17 03:09:16;;;;;;;20.00;11.50;;;5.70;99.90;;;;;;5030568;28;20267;-72
2023/10/17 03:12:07;;;;;;;13.13;11.10;;;5.70;99.90;;;;;;5030832;28;20206;-72
2023/10/17 03:14:40;;;;;;;13.03;11.07;;;5.70;99.90;;;;;;5030749;28;20182;-72
2023/10/17 03:17:09;;;;;;;17.43;11.07;;;5.70;99.90;;;;;;5030837;28;20245;-72
2023/10/17 03:19:36;;;;;;;18.07;11.33;;;5.70;99.90;;;;;;5030751;28;20204;-72
2023/10/17 03:24:49;;;;;;;17.17;11.00;;;5.60;99.90;;;;;;5030530;28;20256;-72
2023/10/17 03:27:36;;;;;;;12.13;10.40;;;5.60;99.90;;;;;;5034430;28;20635;-72
2023/10/17 03:30:08;;;;;;;14.77;11.43;;;5.60;99.90;;;;;;5034601;28;20195;-72
2023/10/17 03:32:34;;;;;;;14.17;11.30;;;5.60;99.90;;;;;;5034302;28;20644;-72
2023/10/17 03:35:07;;;;;;;18.93;11.17;;;5.60;99.90;;;;;;5033147;28;20180;-72
2023/10/17 03:37:33;;;;;;;12.07;10.50;;;5.60;99.90;;;;;;5034492;28;20183;-72
2023/10/17 03:40:29;;;;;;;14.00;10.30;;;5.60;99.90;;;;;;5032703;28;20199;-72
2023/10/17 03:42:53;;;;;;;16.07;12.10;;;5.60;99.90;;;;;;5033594;28;20203;-72
2023/10/17 03:47:53;;;;;;;14.13;10.60;;;5.60;99.90;;;;;;5033952;28;20168;-73
2023/10/17 03:50:34;;;;;;;17.23;10.60;;;5.60;99.90;;;;;;5033519;28;20223;-73
2023/10/17 03:53:05;;;;;;;13.57;11.13;;;5.60;99.90;;;;;;5034147;28;20229;-72
2023/10/17 03:55:31;;;;;;;15.77;10.50;;;5.50;99.90;;;;;;5033925;28;20198;-72
2023/10/17 03:57:59;;;;;;;21.77;10.50;;;5.50;99.90;;;;;;5033887;28;20179;-71
2023/10/17 04:00:27;;;;;;;15.57;11.03;;;5.50;99.90;;;;;;5033771;28;20252;-72
2023/10/17 04:02:53;;;;;;;15.20;11.40;;;5.50;99.90;;;;;;5033760;28;20203;-72
2023/10/17 04:05:22;;;;;;;18.67;11.17;;;5.50;99.90;;;;;;5033117;28;20202;-72
2023/10/17 04:07:52;;;;;;;17.93;13.70;;;5.50;99.90;;;;;;5033504;28;20206;-73
2023/10/17 04:10:21;;;;;;;22.83;12.00;;;5.50;99.90;;;;;;5032295;28;20788;-72
2023/10/17 04:13:12;;;;;;;19.30;12.03;;;5.50;99.90;;;;;;5033622;28;20174;-71
2023/10/17 04:15:35;;;;;;;17.53;12.33;;;5.50;99.90;;;;;;5033459;28;20184;-74
2023/10/17 04:18:02;;;;;;;16.43;11.43;;;5.50;99.90;;;;;;5032539;28;20186;-73
2023/10/17 04:20:34;;;;;;;18.50;13.97;;;5.50;99.90;;;;;;5033389;28;20204;-73
2023/10/17 04:23:00;;;;;;;21.50;15.60;;;5.50;99.90;;;;;;5031945;28;20198;-72
2023/10/17 04:25:34;;;;;;;21.80;13.60;;;5.60;99.90;;;;;;5033196;28;20178;-72
2023/10/17 04:28:01;;;;;;;24.80;17.40;;;5.60;99.90;;;;;;5033268;28;20209;-72
2023/10/17 04:30:30;;;;;;;22.20;15.73;;;5.60;99.90;;;;;;5032850;28;20562;-72
2023/10/17 04:33:08;;;;;;;24.20;12.83;;;5.60;99.90;;;;;;5033192;28;20640;-72
2023/10/17 04:35:44;;;;;;;23.87;15.10;;;5.70;99.90;;;;;;5032897;28;20175;-73
2023/10/17 04:38:18;;;;;;;20.73;11.83;;;5.70;99.90;;;;;;5033167;28;20240;-71
2023/10/17 04:40:50;;;;;;;17.60;12.83;;;5.70;99.90;;;;;;5033230;28;20225;-72
2023/10/17 04:46:22;;;;;;;21.43;14.77;;;5.80;99.90;;;;;;5010597;28;20172;-72
2023/10/17 04:48:52;;;;;;;18.07;13.33;;;5.80;99.90;;;;;;5028364;28;20180;-72
2023/10/17 04:53:49;;;;;;;19.20;13.33;;;5.80;99.90;;;;;;5032751;28;20205;-72
2023/10/17 04:56:17;;;;;;;23.00;13.77;;;5.80;99.90;;;;;;5031599;28;20175;-72
2023/10/17 04:58:53;;;;;;;19.27;12.90;;;5.80;99.90;;;;;;5032605;28;20186;-72
2023/10/17 06:17:48;;;;;;;21.70;14.30;;;6.00;99.90;;;;;;5031127;28;20190;-72
2023/10/17 06:20:16;;;;;;;20.40;13.57;;;6.00;99.90;;;;;;5030552;28;20673;-72
2023/10/17 06:26:04;;;;;;;21.10;13.57;;;6.00;99.90;;;;;;5029744;28;20342;-72
2023/10/17 06:30:48;;;;;;;16.00;11.70;;;6.10;99.90;;;;;;5030875;28;20190;-72
2023/10/17 06:35:44;;;;;;;20.87;13.33;;;6.20;99.90;;;;;;5030415;28;20595;-72
2023/10/17 06:38:10;;;;;;;18.73;13.57;;;6.30;99.90;;;;;;5030826;28;20214;-72
2023/10/17 06:40:45;;;;;;;28.20;14.30;;;6.30;99.90;;;;;;5030726;28;20213;-72
2023/10/17 06:43:15;;;;;;;25.07;14.27;;;6.40;99.90;;;;;;5030475;28;20271;-72
2023/10/17 06:45:54;;;;;;;21.27;13.33;;;6.50;99.90;;;;;;5030930;28;20175;-72
2023/10/17 06:48:22;;;;;;;22.53;14.13;;;6.60;99.90;;;;;;5030395;28;20571;-72
2023/10/17 06:53:34;;;;;;;20.63;13.00;;;6.70;99.90;;;;;;5030563;28;20206;-72
2023/10/17 06:56:05;;;;;;;23.23;14.30;;;6.70;99.90;;;;;;5030483;28;20167;-72
2023/10/17 06:58:32;;;;;;;21.23;14.73;;;6.80;99.90;;;;;;5028504;28;20544;-72
2023/10/17 07:00:59;;;;;;;23.00;15.07;;;6.90;99.90;;;;;;5034618;28;20277;-72
2023/10/17 07:03:25;;;;;;;22.80;14.00;;;6.90;99.90;;;;;;5034523;28;20237;-72
2023/10/17 07:05:54;;;;;;;19.87;13.57;;;7.00;99.90;;;;;;5034353;28;20207;-72
2023/10/17 07:08:20;;;;;;;22.30;14.93;;;7.10;99.90;;;;;;5035058;28;20225;-72
2023/10/17 07:16:33;;;;;;;19.10;12.83;;;7.40;99.90;;;;;;5034492;28;20662;-72
2023/10/17 07:22:35;;;;;;;19.23;12.50;;;7.50;99.90;;;;;;5034602;28;20233;-72
2023/10/17 07:24:48;;;;;;;15.87;12.57;;;7.50;99.90;;;;;;5033332;28;20207;-72
2023/10/17 07:27:38;;;;;;;15.30;12.93;;;7.60;99.90;;;;;;5033022;28;20618;-72
2023/10/17 07:30:03;;;;;;;23.20;12.80;;;7.70;99.90;;;;;;5033532;28;20285;-72
2023/10/17 07:32:44;;;;;;;17.47;12.60;;;7.80;99.90;;;;;;5033971;28;20210;-72
2023/10/17 07:35:15;;;;;;;23.47;14.40;;;7.90;99.90;;;;;;5034019;28;20172;-72
2023/10/17 07:37:54;;;;;;;19.07;12.70;;;8.00;99.90;;;;;;5031642;28;20266;-72
2023/10/17 07:43:07;;;;;;;21.30;12.23;;;8.20;99.90;;;;;;5033788;28;20203;-72
2023/10/17 07:45:39;;;;;;;16.70;10.73;;;8.20;99.90;;;;;;5033931;28;20164;-72
2023/10/17 07:51:07;;;;;;;21.87;11.60;;;8.30;99.90;;;;;;5021583;28;20199;-72
2023/10/17 07:53:33;;;;;;;18.90;12.37;;;8.40;99.90;;;;;;5032051;28;20202;-72
2023/10/17 07:56:05;;;;;;;24.77;12.83;;;8.40;99.90;;;;;;5032394;28;20187;-73
2023/10/17 07:58:45;;;;;;;15.23;11.20;;;8.50;99.90;;;;;;5033573;28;20254;-72
2023/10/17 08:01:14;;;;;;;17.67;11.33;;;8.60;99.90;;;;;;5033452;28;20248;-72
2023/10/17 08:03:41;;;;;;;17.80;11.47;;;8.80;99.90;;;;;;5033638;28;20206;-72
2023/10/17 08:06:12;;;;;;;14.27;11.40;;;8.90;99.90;;;;;;5033294;28;20202;-73
2023/10/17 08:08:42;;;;;;;15.47;11.13;;;9.10;99.90;;;;;;5033610;28;20171;-72
2023/10/17 08:11:26;;;;;;;14.57;10.80;;;9.20;99.90;;;;;;5030805;28;20195;-72
2023/10/17 08:13:54;;;;;;;14.10;10.83;;;9.30;99.90;;;;;;5032947;28;20176;-73
2023/10/17 08:16:28;;;;;;;14.43;10.27;;;9.30;99.90;;;;;;5033449;28;20302;-72
2023/10/17 08:18:58;;;;;;;11.03;9.50;;;9.30;99.90;;;;;;5033421;28;20603;-71
2023/10/17 08:21:35;;;;;;;15.93;9.97;;;9.40;99.90;;;;;;5033157;28;20187;-72
2023/10/17 08:24:02;;;;;;;13.67;10.00;;;9.50;99.90;;;;;;5032806;28;20625;-72
2023/10/17 08:26:40;;;;;;;10.57;8.90;;;9.70;99.90;;;;;;5032824;28;20511;-72
2023/10/17 08:29:08;;;;;;;13.60;8.87;;;9.70;99.90;;;;;;5033120;28;20167;-72
2023/10/17 08:31:44;;;;;;;10.40;7.47;;;9.90;99.90;;;;;;5032876;28;20631;-72
2023/10/17 08:34:12;;;;;;;13.07;8.47;;;9.90;99.90;;;;;;5032690;28;20175;-72
2023/10/17 08:36:53;;;;;;;13.43;8.27;;;9.90;99.90;;;;;;5031142;28;20180;-72
2023/10/17 08:39:31;;;;;;;12.73;7.30;;;10.00;99.90;;;;;;5031655;28;20237;-72
2023/10/17 08:42:14;;;;;;;10.33;7.93;;;10.10;99.90;;;;;;5032696;28;20171;-72
2023/10/17 08:44:50;;;;;;;12.60;7.53;;;10.10;99.90;;;;;;5032427;28;20202;-72
2023/10/17 08:47:18;;;;;;;12.40;7.80;;;10.20;99.90;;;;;;5032989;28;20535;-72
2023/10/17 08:49:44;;;;;;;9.93;7.00;;;10.30;99.90;;;;;;5032407;28;20191;-72
2023/10/17 08:52:27;;;;;;;11.77;6.80;;;10.30;99.90;;;;;;5032565;28;20180;-72
2023/10/17 08:54:53;;;;;;;9.00;7.13;;;10.50;99.90;;;;;;5030919;28;20254;-72
2023/10/17 08:57:19;;;;;;;7.97;6.20;;;10.50;99.90;;;;;;5031369;28;20186;-72
2023/10/17 09:05:11;;;;;;;6.10;5.53;;;10.90;99.90;;;;;;5032252;28;20630;-73
2023/10/17 09:07:43;;;;;;;6.37;4.67;;;11.20;99.90;;;;;;5032386;28;20194;-71
2023/10/17 09:10:36;;;;;;;4.87;4.47;;;11.20;99.90;;;;;;5032282;28;20188;-72
2023/10/17 09:15:55;;;;;;;4.63;4.27;;;11.30;99.90;;;;;;5032056;28;20171;-72
2023/10/17 09:18:28;;;;;;;5.13;3.50;;;11.20;99.90;;;;;;5030874;28;20206;-73
2023/10/17 09:20:55;;;;;;;5.60;4.23;;;11.00;99.90;;;;;;5031917;28;20207;-72
2023/10/17 09:23:23;;;;;;;4.83;3.87;;;10.90;99.90;;;;;;5030771;28;20226;-72
2023/10/17 09:26:07;;;;;;;5.40;4.17;;;10.90;99.90;;;;;;5031932;28;20201;-72
2023/10/17 09:28:33;;;;;;;3.60;3.30;;;11.10;99.90;;;;;;5031710;28;20172;-72
2023/10/17 09:31:03;;;;;;;5.33;3.50;;;11.20;99.90;;;;;;5032349;28;20655;-72
2023/10/17 09:33:34;;;;;;;3.93;3.40;;;11.20;99.90;;;;;;5031645;28;20179;-72
2023/10/17 09:36:04;;;;;;;4.33;3.37;;;11.20;99.90;;;;;;5031676;28;20175;-72
2023/10/17 09:38:34;;;;;;;3.67;3.23;;;11.20;99.90;;;;;;5031326;28;20190;-72
2023/10/17 09:41:01;;;;;;;4.40;3.13;;;11.40;99.90;;;;;;5031910;28;20199;-72
2023/10/17 09:43:27;;;;;;;4.77;3.00;;;12.00;99.90;;;;;;5031653;28;20293;-73
2023/10/17 09:45:55;;;;;;;3.50;3.20;;;12.60;99.90;;;;;;5031213;28;20224;-72
2023/10/17 09:48:32;;;;;;;3.63;2.83;;;12.70;99.90;;;;;;5031307;28;20263;-72
2023/10/17 09:51:01;;;;;;;3.23;3.03;;;12.60;99.90;;;;;;5031542;28;20195;-73
2023/10/17 09:53:30;;;;;;;3.63;3.27;;;12.40;99.90;;;;;;5031276;28;20201;-71
2023/10/17 09:56:00;;;;;;;5.33;3.30;;;12.00;99.90;;;;;;5030538;28;20563;-74
2023/10/17 09:58:33;;;;;;;3.30;3.10;;;11.90;99.90;;;;;;5031855;28;20175;-72
2023/10/17 10:01:05;;;;;;;6.30;3.20;;;12.00;99.90;;;;;;5031204;28;20654;-72
2023/10/17 10:03:35;;;;;;;3.33;3.03;;;12.50;99.90;;;;;;5031329;28;20223;-72
2023/10/17 10:06:25;;;;;;;3.93;2.80;;;13.00;99.90;;;;;;5031141;28;20508;-71
2023/10/17 10:08:55;;;;;;;3.00;2.70;;;13.50;99.90;;;;;;5031266;28;20175;-71
2023/10/17 10:11:41;;;;;;;3.00;2.70;;;14.00;99.90;;;;;;5031168;28;20179;-72
2023/10/17 10:14:11;;;;;;;3.80;2.67;;;14.40;99.90;;;;;;5031105;28;20174;-71
2023/10/17 10:16:57;;;;;;;4.60;2.70;;;14.70;99.90;;;;;;5031341;28;20207;-72
2023/10/17 10:19:27;;;;;;;2.90;2.70;;;14.80;99.90;;;;;;5031106;28;20180;-72
2023/10/17 10:21:59;;;;;;;2.87;2.60;;;14.80;99.90;;;;;;5031005;28;20167;-70
2023/10/17 10:24:27;;;;;;;3.20;2.73;;;14.70;99.90;;;;;;5031009;28;20207;-73
2023/10/17 10:27:08;;;;;;;3.17;2.90;;;14.60;99.90;;;;;;5030970;28;21042;-72
2023/10/17 10:29:34;;;;;;;3.47;2.67;;;14.70;99.90;;;;;;5030642;28;20199;-72
2023/10/17 10:32:05;;;;;;;3.53;2.60;;;14.60;99.90;;;;;;5031097;28;20168;-72
2023/10/17 10:34:36;;;;;;;4.87;2.70;;;14.40;99.90;;;;;;5030452;28;20333;-71
2023/10/17 10:37:08;;;;;;;4.43;2.57;;;14.50;99.90;;;;;;5030627;28;20228;-72
2023/10/17 10:39:35;;;;;;;2.97;2.57;;;14.70;99.90;;;;;;5030939;28;20195;-72
2023/10/17 10:42:05;;;;;;;3.97;2.90;;;14.70;99.90;;;;;;5030753;28;20537;-72
2023/10/17 10:44:41;;;;;;;3.10;2.83;;;14.60;99.90;;;;;;5030097;28;20777;-71
2023/10/17 10:47:07;;;;;;;3.30;2.60;;;14.70;99.90;;;;;;5030590;28;20258;-72
2023/10/17 10:49:33;;;;;;;3.07;2.50;;;14.80;99.90;;;;;;5030720;28;20743;-72
2023/10/17 10:51:59;;;;;;;2.63;2.43;;;14.80;99.90;;;;;;5029325;28;20181;-72
2023/10/17 10:54:50;;;;;;;3.00;2.80;;;14.90;99.90;;;;;;5030756;28;20266;-71
2023/10/17 10:57:28;;;;;;;2.80;2.60;;;15.00;99.90;;;;;;5030506;28;20187;-72
2023/10/17 10:59:54;;;;;;;4.27;2.73;;;15.10;99.90;;;;;;5030660;28;20210;-73
2023/10/17 11:02:20;;;;;;;3.00;2.53;;;14.90;99.90;;;;;;5030656;28;20175;-72
2023/10/17 11:04:47;;;;;;;2.70;2.50;;;14.80;99.90;;;;;;5030360;28;20292;-72
2023/10/17 11:07:20;;;;;;;3.13;2.60;;;14.80;99.90;;;;;;5030810;28;20178;-72
2023/10/17 11:10:04;;;;;;;2.97;2.57;;;14.90;99.90;;;;;;5030671;28;20237;-71
2023/10/17 11:12:29;;;;;;;2.87;2.30;;;15.00;99.90;;;;;;5030347;28;20258;-72
2023/10/17 11:15:10;;;;;;;3.50;2.90;;;15.10;99.90;;;;;;5030802;28;20295;-71
2023/10/17 11:17:37;;;;;;;2.70;2.50;;;15.00;99.90;;;;;;5030746;28;20175;-71
2023/10/17 11:20:13;;;;;;;2.77;2.50;;;14.90;99.90;;;;;;5030396;28;20286;-72
2023/10/17 11:22:40;;;;;;;2.57;2.47;;;15.10;99.90;;;;;;5029333;28;20663;-72
2023/10/17 11:25:31;;;;;;;2.77;2.57;;;15.20;99.90;;;;;;5030162;28;20218;-72
2023/10/17 11:28:00;;;;;;;3.20;2.77;;;15.20;99.90;;;;;;5030027;28;20246;-72
2023/10/17 11:30:33;;;;;;;2.73;2.40;;;15.40;99.90;;;;;;5030457;28;20199;-73
2023/10/17 11:33:05;;;;;;;2.90;2.70;;;15.50;99.90;;;;;;5030451;28;20281;-72
2023/10/17 11:35:34;;;;;;;2.70;2.50;;;15.40;99.90;;;;;;5029367;28;20283;-73
2023/10/17 11:38:00;;;;;;;2.67;2.47;;;15.30;99.90;;;;;;5027234;28;20207;-72
2023/10/17 11:40:44;;;;;;;2.60;2.40;;;15.20;99.90;;;;;;5029412;28;20709;-72
2023/10/17 11:43:20;;;;;;;2.50;2.40;;;15.30;99.90;;;;;;5029769;28;20211;-72
2023/10/17 11:45:46;;;;;;;2.63;2.43;;;15.30;99.90;;;;;;5030170;28;20175;-72
2023/10/17 11:48:28;;;;;;;2.50;2.30;;;15.30;99.90;;;;;;5033724;28;20517;-72
2023/10/17 11:51:17;;;;;;;2.27;2.10;;;15.60;99.90;;;;;;5033735;28;20187;-73
2023/10/17 11:54:07;;;;;;;3.30;2.43;;;15.80;99.90;;;;;;5033570;28;20691;-73
2023/10/17 11:56:35;;;;;;;2.70;2.50;;;16.00;99.90;;;;;;5033889;28;20181;-73
2023/10/17 11:59:03;;;;;;;2.33;2.20;;;16.10;99.90;;;;;;5032169;28;20268;-73
2023/10/17 12:01:29;;;;;;;2.97;2.60;;;16.40;99.90;;;;;;5034004;28;20202;-72
2023/10/17 12:03:57;;;;;;;2.60;2.40;;;16.50;99.90;;;;;;5033547;28;20215;-72
2023/10/17 12:06:28;;;;;;;2.33;2.23;;;16.40;99.90;;;;;;5033547;28;20199;-73
2023/10/17 12:08:57;;;;;;;2.43;2.30;;;16.40;99.90;;;;;;5033551;28;20182;-73
2023/10/17 12:11:24;;;;;;;4.57;2.40;;;16.30;99.90;;;;;;5033324;28;20245;-73
2023/10/17 12:13:52;;;;;;;2.63;2.43;;;16.30;99.90;;;;;;5033321;28;20179;-72
2023/10/17 12:16:23;;;;;;;2.60;2.40;;;16.10;99.90;;;;;;5033720;28;20202;-72
2023/10/17 12:18:49;;;;;;;2.30;2.20;;;16.20;99.90;;;;;;5033383;28;20210;-72
2023/10/17 12:21:15;;;;;;;2.87;2.50;;;16.40;99.90;;;;;;5033490;28;20303;-72
2023/10/17 12:23:41;;;;;;;3.10;2.30;;;16.50;99.90;;;;;;5033227;28;20278;-73
2023/10/17 12:26:13;;;;;;;3.50;2.53;;;16.70;99.90;;;;;;5033073;28;20262;-72
2023/10/17 12:28:41;;;;;;;2.20;2.10;;;16.80;99.90;;;;;;5033378;28;20199;-73
2023/10/17 12:31:10;;;;;;;2.63;2.43;;;16.80;99.90;;;;;;5033446;28;20188;-71
2023/10/17 12:33:36;;;;;;;2.73;2.30;;;16.90;99.90;;;;;;5033470;28;20211;-72
2023/10/17 12:36:05;;;;;;;2.50;2.30;;;16.90;99.90;;;;;;5031644;28;20214;-72
2023/10/17 12:38:34;;;;;;;2.27;2.07;;;16.90;99.90;;;;;;5033093;28;20631;-72
2023/10/17 12:41:09;;;;;;;3.23;2.20;;;17.10;99.90;;;;;;5033122;28;20203;-71
2023/10/17 12:43:35;;;;;;;2.40;2.20;;;17.30;99.90;;;;;;5033034;28;20206;-73
2023/10/17 12:46:02;;;;;;;2.20;2.10;;;17.20;99.90;;;;;;5032828;28;20176;-72
2023/10/17 12:48:28;;;;;;;2.50;2.30;;;17.10;99.90;;;;;;5032806;28;20175;-72
2023/10/17 12:50:54;;;;;;;2.53;2.27;;;17.20;99.90;;;;;;5032572;28;20238;-72
2023/10/17 12:53:19;;;;;;;2.40;2.20;;;17.20;99.90;;;;;;5033057;28;20815;-73
2023/10/17 12:55:45;;;;;;;2.17;2.07;;;17.30;99.90;;;;;;5032602;28;20623;-73
2023/10/17 12:58:11;;;;;;;2.80;2.50;;;17.50;99.90;;;;;;5032513;28;20183;-73
2023/10/17 13:00:38;;;;;;;4.20;2.20;;;17.40;99.90;;;;;;5032850;28;20701;-73
2023/10/17 13:03:04;;;;;;;4.20;2.23;;;17.40;99.90;;;;;;5032533;28;20176;-72
2023/10/17 13:05:30;;;;;;;2.40;2.27;;;17.40;99.90;;;;;;5032774;28;20616;-72
2023/10/17 13:07:56;;;;;;;3.57;2.07;;;17.40;99.90;;;;;;5031827;28;20179;-73
2023/10/17 13:10:21;;;;;;;2.40;2.20;;;17.20;99.90;;;;;;5030785;28;20200;-72
2023/10/17 13:12:47;;;;;;;2.83;2.10;;;17.20;99.90;;;;;;5030753;28;20218;-73
2023/10/17 13:15:15;;;;;;;2.30;2.10;;;17.30;99.90;;;;;;5031655;28;20647;-73
2023/10/17 13:17:41;;;;;;;2.00;1.90;;;17.60;99.90;;;;;;5032732;28;20186;-73
2023/10/17 13:20:07;;;;;;;2.30;2.10;;;17.80;99.90;;;;;;5032488;28;20199;-71
2023/10/17 13:22:41;;;;;;;2.63;2.07;;;17.90;99.90;;;;;;5032517;28;20186;-74
2023/10/17 13:25:13;;;;;;;2.73;2.20;;;17.80;99.90;;;;;;5032155;28;20575;-73
2023/10/17 13:27:39;;;;;;;3.53;1.90;;;17.80;99.90;;;;;;5032528;28;20547;-73
2023/10/17 13:30:08;;;;;;;3.30;2.33;;;17.60;99.90;;;;;;5030967;28;20199;-73
2023/10/17 13:32:33;;;;;;;2.33;2.17;;;17.50;99.90;;;;;;5032427;28;20168;-72
2023/10/17 13:35:00;;;;;;;2.23;2.03;;;17.50;99.90;;;;;;5031257;28;20282;-73
2023/10/17 13:37:29;;;;;;;3.10;2.20;;;17.50;99.90;;;;;;5032347;28;20176;-73
2023/10/17 13:39:55;;;;;;;2.40;2.20;;;17.60;99.90;;;;;;5032070;28;20195;-73
2023/10/17 13:42:21;;;;;;;2.13;2.03;;;17.60;99.90;;;;;;5033065;28;20227;-73
2023/10/17 13:44:47;;;;;;;2.30;2.10;;;17.60;99.90;;;;;;5032694;28;20234;-73
2023/10/17 13:47:13;;;;;;;3.10;2.00;;;17.60;99.90;;;;;;5032038;28;20168;-73
2023/10/17 13:49:39;;;;;;;2.57;2.00;;;17.60;99.90;;;;;;5031990;28;20230;-73
2023/10/17 13:52:05;;;;;;;3.57;2.20;;;17.60;99.90;;;;;;5031773;28;20207;-73
2023/10/17 13:54:37;;;;;;;2.40;2.20;;;17.70;99.90;;;;;;5031807;28;20266;-73
2023/10/17 13:57:07;;;;;;;3.27;2.37;;;17.90;99.90;;;;;;5031888;28;20649;-73
2023/10/17 13:59:39;;;;;;;2.37;2.13;;;18.00;99.90;;;;;;5031489;28;20214;-73
2023/10/17 14:02:08;;;;;;;3.67;2.23;;;18.00;99.90;;;;;;5031408;28;20229;-73
2023/10/17 14:04:37;;;;;;;2.03;1.90;;;17.90;99.90;;;;;;5031638;28;20573;-73
2023/10/17 14:07:04;;;;;;;2.20;2.00;;;17.90;99.90;;;;;;5032147;28;20178;-72
2023/10/17 14:09:30;;;;;;;2.30;2.10;;;17.70;99.90;;;;;;5032274;28;20727;-73
2023/10/17 14:11:56;;;;;;;3.77;2.00;;;17.40;99.90;;;;;;5031287;28;20545;-73
2023/10/17 14:14:25;;;;;;;2.63;2.10;;;17.30;99.90;;;;;;5031315;28;20183;-72
2023/10/17 14:16:51;;;;;;;4.10;2.47;;;16.90;99.90;;;;;;5031517;28;20219;-71
2023/10/17 14:22:33;;;;;;;2.23;2.10;;;16.40;99.90;;;;;;5008730;28;20548;-73
2023/10/17 14:27:29;;;;;;;3.07;2.37;;;16.00;99.90;;;;;;5011675;28;20180;-72
2023/10/17 14:29:58;;;;;;;2.40;2.20;;;16.00;99.90;;;;;;5026802;28;20278;-73
2023/10/17 14:32:26;;;;;;;2.27;2.13;;;16.20;99.90;;;;;;5011645;28;20180;-72
2023/10/17 14:34:52;;;;;;;2.20;2.07;;;16.30;99.90;;;;;;5011424;28;20182;-72
2023/10/17 14:37:20;;;;;;;3.57;2.10;;;16.40;99.90;;;;;;5016918;28;20639;-72
2023/10/17 14:39:46;;;;;;;2.27;2.07;;;16.50;99.90;;;;;;5031511;28;20671;-72
2023/10/17 14:42:14;;;;;;;2.03;1.90;;;16.70;99.90;;;;;;5031025;28;20188;-72
2023/10/17 14:44:46;;;;;;;3.97;2.23;;;16.80;99.90;;;;;;5031305;28;20207;-73
2023/10/17 14:47:17;;;;;;;2.10;2.00;;;17.00;99.90;;;;;;5031060;28;20179;-72
2023/10/17 14:49:43;;;;;;;2.47;2.00;;;17.20;99.90;;;;;;5031180;28;20655;-73
2023/10/17 14:52:11;;;;;;;2.17;1.97;;;17.50;99.90;;;;;;5030207;28;20263;-73
2023/10/17 14:54:37;;;;;;;2.50;2.30;;;17.60;99.90;;;;;;5029722;28;20250;-73
2023/10/17 14:57:06;;;;;;;3.00;2.00;;;17.70;99.90;;;;;;5029684;28;20242;-73
2023/10/17 14:59:35;;;;;;;3.40;2.30;;;18.00;99.90;;;;;;5031080;28;20650;-73
2023/10/17 15:02:02;;;;;;;2.30;2.10;;;17.80;99.90;;;;;;5030589;28;20253;-73
2023/10/17 15:04:28;;;;;;;3.67;2.20;;;17.60;99.90;;;;;;5029307;28;20215;-72
2023/10/17 15:06:54;;;;;;;2.03;1.93;;;17.50;99.90;;;;;;5030858;28;20200;-73
2023/10/17 15:09:21;;;;;;;2.33;2.10;;;17.20;99.90;;;;;;5030817;28;20180;-73
2023/10/17 15:11:48;;;;;;;2.40;2.20;;;16.90;99.90;;;;;;5030655;28;20241;-72
2023/10/17 15:14:15;;;;;;;2.20;2.00;;;16.90;99.90;;;;;;5029953;28;20179;-73